Luray, VA

1:33 PM EDT on September 04, 2015 (GMT -0400)
Khimaira Farm | | Change Station
CLOSE
Current Station
Personal Weather Station
Location: Luray, VA
Elevation: 952 ft
Nearby Weather Stations

Elev 952 ft 38.63 °N, 78.43 °W | Updated 3 minutes ago

Rain
Rain
77.4 °F
Feels Like 79 °F
N
0.0
Wind Variable Wind from WSW
Gusts 1.0 mph

Today
High -- | Low -- °F
--% Chance of Precip.
Yesterday
High -- | Low -- °F
Precip. -- in
6:45 AM 7:39 PM
Waning Gibbous, 57% visible
Pressure 30.06 in
Visibility 10.0 miles
Clouds Clear
Heat Index 79 °F
Dew Point 74 °F
Humidity 90%
Rainfall 0.12 in
Snow Depth Not available.
UV 9 out of 12
Pollen 7.30 out of 12
Air Quality Not available.
Flu Activity Not available.
METAR KLUA 041715Z AUTO 20006KT 10SM CLR 27/20 A3006 RMK AO2 LTG DSNT W THRU N
Pressure 30.06 in
Visibility 10.0 miles
Clouds Clear
Heat Index 79 °F
Dew Point 74 °F
Humidity 90%
Rainfall 0.12 in
Snow Depth Not available.
UV 9 out of 12
Pollen 7.30 out of 12
Air Quality Not available.
Flu Activity Not available.
METAR KLUA 041715Z AUTO 20006KT 10SM CLR 27/20 A3006 RMK AO2 LTG DSNT W THRU N

10-Day Weather Forecast

×

Almanac

Astronomy

Sep. 04, 2015 Rise Set
Actual Time
Civil Twilight
Nautical Twilight
Astronomical Twilight
Moon
Length of Visible Light
Length of Day
Tomorrow will be .
, % of the Moon is Illuminated

Today's Extremes

State Highs State Lows

Community

WunderPhotos

Upload Photos

1,852,244 photos uploaded!

WunderBlogs® & News

Nearby

Air Quality

  Air Quality AQ Index Pollutant
Not available.

Snow Depth

Station Depth Elevation

Earthquake Activity

City Distance Mag. Time & Date
Minimum magnitude displayed is 2.5.

Coastal Water Temperatures

Place Temperature

Stations

Nearby Weather Stations

Station Location Temp. Windchill Dew Point Humidity Wind Precip. Elev Updated Type